createdAt,value
2022-10-22T00:01:03.064Z,99.99
2022-10-22T00:03:33.338Z,99.99
2022-10-22T00:06:03.915Z,99.99
2022-10-22T00:08:34.328Z,99.99
2022-10-22T00:11:16.555Z,99.99
2022-10-22T00:13:48.518Z,99.99
2022-10-22T00:16:18.757Z,99.99
2022-10-22T00:18:49.091Z,99.99
2022-10-22T00:21:19.283Z,99.99
2022-10-22T00:23:50.102Z,99.99
2022-10-22T00:26:21.198Z,99.99
2022-10-22T00:28:51.578Z,99.99
2022-10-22T00:31:22.878Z,99.99
2022-10-22T00:33:52.799Z,99.99
2022-10-22T00:36:22.615Z,99.99
2022-10-22T00:38:52.414Z,99.99
2022-10-22T00:41:22.723Z,99.99
2022-10-22T00:44:06.564Z,99.99
2022-10-22T00:46:36.833Z,99.99
2022-10-22T00:49:06.682Z,99.99
2022-10-22T00:51:37.685Z,99.99
2022-10-22T00:54:11.012Z,99.99
2022-10-22T00:56:41.595Z,99.99
2022-10-22T00:59:14.701Z,99.99
2022-10-22T01:01:46.393Z,99.99
2022-10-22T01:04:17.078Z,99.99
2022-10-22T01:06:48.527Z,99.99
2022-10-22T01:09:27.732Z,99.99
2022-10-22T01:12:32.158Z,99.99
2022-10-22T01:15:22.865Z,99.99
2022-10-22T01:18:08.902Z,99.99
2022-10-22T01:20:57.510Z,99.99
2022-10-22T01:23:57.932Z,99.99
2022-10-22T01:27:06.414Z,99.99
2022-10-22T01:29:51.450Z,99.99
2022-10-22T01:32:27.342Z,99.99
2022-10-22T01:35:10.567Z,99.99
2022-10-22T01:37:46.324Z,99.99
2022-10-22T01:40:19.259Z,99.99
2022-10-22T01:43:07.932Z,99.99
2022-10-22T01:45:46.874Z,99.99
2022-10-22T01:48:29.165Z,99.99
2022-10-22T01:51:07.479Z,99.99
2022-10-22T01:54:02.933Z,99.99
2022-10-22T01:57:10.935Z,99.99
2022-10-22T02:00:16.883Z,99.99
2022-10-22T02:03:25.810Z,99.99
2022-10-22T02:06:01.150Z,99.99
2022-10-22T02:08:35.145Z,99.99
2022-10-22T02:11:06.729Z,99.99
2022-10-22T02:13:42.803Z,99.99
2022-10-22T02:16:17.407Z,99.99
2022-10-22T02:18:50.950Z,99.99
2022-10-22T02:21:21.791Z,99.99
2022-10-22T02:23:52.175Z,99.99
2022-10-22T02:26:26.298Z,99.99
2022-10-22T02:29:21.637Z,99.99
2022-10-22T02:31:54.026Z,99.99
2022-10-22T02:34:25.558Z,99.99
2022-10-22T02:36:55.587Z,99.99
2022-10-22T02:39:25.334Z,99.99
2022-10-22T02:41:56.728Z,99.99
2022-10-22T02:44:27.145Z,99.99
2022-10-22T02:46:57.690Z,99.99
2022-10-22T02:49:27.608Z,99.99
2022-10-22T02:51:57.628Z,99.99
2022-10-22T02:54:27.451Z,99.99
2022-10-22T02:56:57.247Z,99.99
2022-10-22T02:59:28.327Z,99.99
2022-10-22T03:01:58.259Z,99.99
2022-10-22T03:04:28.217Z,99.99
2022-10-22T03:06:58.377Z,99.99
2022-10-22T03:09:28.615Z,99.99
2022-10-22T03:11:58.426Z,99.99
2022-10-22T03:14:28.571Z,99.99
2022-10-22T03:16:58.824Z,99.99
2022-10-22T03:19:28.610Z,99.99
2022-10-22T03:22:08.734Z,99.99
2022-10-22T03:24:46.804Z,99.99
2022-10-22T03:27:20.869Z,99.99
2022-10-22T03:29:53.076Z,99.99
2022-10-22T03:32:23.091Z,99.99
2022-10-22T03:34:52.971Z,99.99
2022-10-22T03:37:23.109Z,99.99
2022-10-22T03:39:54.171Z,99.99
2022-10-22T03:42:24.977Z,99.99
2022-10-22T03:44:55.058Z,99.99
2022-10-22T03:47:25.802Z,99.99
2022-10-22T03:49:56.121Z,99.99
2022-10-22T03:52:26.514Z,99.99
2022-10-22T03:54:56.329Z,99.99
2022-10-22T03:57:26.647Z,99.99
2022-10-22T03:59:56.381Z,99.99
2022-10-22T04:02:26.667Z,99.99
2022-10-22T04:04:56.457Z,99.99
2022-10-22T04:07:26.627Z,99.99
2022-10-22T04:09:56.354Z,99.99
2022-10-22T04:12:26.203Z,99.99
2022-10-22T04:14:55.995Z,99.99
2022-10-22T04:17:26.009Z,99.99
2022-10-22T04:19:55.773Z,99.99
2022-10-22T04:22:25.543Z,99.99
2022-10-22T04:24:55.338Z,99.99
2022-10-22T04:27:25.162Z,99.99
2022-10-22T04:29:54.917Z,99.99
2022-10-22T04:32:24.762Z,99.99
2022-10-22T04:34:54.588Z,99.99
2022-10-22T04:37:24.426Z,99.99
2022-10-22T04:39:54.189Z,99.99
2022-10-22T04:42:23.953Z,99.99
2022-10-22T04:44:53.694Z,99.99
2022-10-22T04:47:23.539Z,99.99
2022-10-22T04:49:54.248Z,99.99
2022-10-22T04:52:24.776Z,99.99
2022-10-22T04:54:54.554Z,99.99
2022-10-22T04:57:24.334Z,99.99
2022-10-22T04:59:54.383Z,99.99
2022-10-22T05:02:24.621Z,99.99
2022-10-22T05:04:54.529Z,99.99
2022-10-22T05:07:24.947Z,99.99
2022-10-22T05:09:55.614Z,99.99
2022-10-22T05:12:25.921Z,99.99
2022-10-22T05:14:57.084Z,99.99
2022-10-22T05:17:27.532Z,99.99
2022-10-22T05:19:57.347Z,99.99
2022-10-22T05:22:27.567Z,99.99
2022-10-22T05:24:57.371Z,99.99
2022-10-22T05:27:27.367Z,99.99
2022-10-22T05:29:57.144Z,99.99
2022-10-22T05:32:26.882Z,99.99
2022-10-22T05:34:56.697Z,99.99
2022-10-22T05:37:26.471Z,99.99
2022-10-22T05:40:06.523Z,99.99
2022-10-22T05:42:46.213Z,99.99
2022-10-22T05:45:16.183Z,99.99
2022-10-22T05:47:46.383Z,99.99
2022-10-22T05:50:16.611Z,99.99
2022-10-22T05:52:46.384Z,99.99
2022-10-22T05:55:16.256Z,99.99
2022-10-22T05:57:46.082Z,99.99
2022-10-22T06:00:16.629Z,99.99
2022-10-22T06:02:50.665Z,99.99
2022-10-22T06:05:22.017Z,99.99
2022-10-22T06:07:51.972Z,99.99
2022-10-22T06:10:23.033Z,99.99
2022-10-22T06:12:53.363Z,99.99
2022-10-22T06:15:23.635Z,99.99
2022-10-22T06:17:53.410Z,99.99
2022-10-22T06:20:23.262Z,99.99
2022-10-22T06:22:53.052Z,99.99
2022-10-22T06:25:22.872Z,99.99
2022-10-22T06:27:53.186Z,99.99
2022-10-22T06:30:23.445Z,99.99
2022-10-22T06:32:53.251Z,99.99
2022-10-22T06:35:23.980Z,99.99
2022-10-22T06:37:54.061Z,99.99
2022-10-22T06:40:24.516Z,99.99
2022-10-22T06:42:54.818Z,99.99
2022-10-22T06:45:24.693Z,99.99
2022-10-22T06:47:54.916Z,99.99
2022-10-22T06:50:24.973Z,99.99
2022-10-22T06:52:55.090Z,99.99
2022-10-22T06:55:25.253Z,99.99
2022-10-22T06:57:56.686Z,99.99
2022-10-22T07:00:27.872Z,99.99
2022-10-22T07:02:59.903Z,99.99
2022-10-22T07:05:30.468Z,99.99
2022-10-22T07:08:00.471Z,99.99
2022-10-22T07:10:30.810Z,99.99
2022-10-22T07:13:01.451Z,99.99
2022-10-22T07:15:31.272Z,99.99
2022-10-22T07:18:01.397Z,99.99
2022-10-22T07:20:31.347Z,99.99
2022-10-22T07:23:01.130Z,99.99
2022-10-22T07:25:30.859Z,99.99
2022-10-22T07:28:00.635Z,99.99
2022-10-22T07:30:30.425Z,99.99
2022-10-22T07:33:00.609Z,99.99
2022-10-22T07:35:30.507Z,99.99
2022-10-22T07:38:00.260Z,99.99
2022-10-22T07:40:30.259Z,99.99
2022-10-22T07:43:00.130Z,99.99
2022-10-22T07:45:30.211Z,99.99
2022-10-22T07:48:01.810Z,99.99
2022-10-22T07:50:32.377Z,99.99
2022-10-22T07:53:02.410Z,99.99
2022-10-22T07:55:32.808Z,99.99
2022-10-22T07:58:02.899Z,99.99
2022-10-22T08:00:33.566Z,99.99
2022-10-22T08:03:03.636Z,99.99
2022-10-22T08:05:33.709Z,99.99
2022-10-22T08:08:03.709Z,99.99
2022-10-22T08:10:34.654Z,99.99
2022-10-22T08:13:05.270Z,99.99
2022-10-22T08:15:35.773Z,99.99
2022-10-22T08:18:06.289Z,99.99
2022-10-22T08:20:36.780Z,99.99
2022-10-22T08:23:07.423Z,99.99
2022-10-22T08:25:37.451Z,99.99
2022-10-22T08:28:08.542Z,99.99
2022-10-22T08:30:40.099Z,99.99
2022-10-22T08:33:10.608Z,99.99
2022-10-22T08:35:41.706Z,99.99
2022-10-22T08:38:11.877Z,99.99
2022-10-22T08:40:42.837Z,99.99
2022-10-22T08:43:58.044Z,99.99
2022-10-22T08:46:30.724Z,99.99
2022-10-22T08:49:04.381Z,99.99
2022-10-22T08:51:41.527Z,99.99
2022-10-22T08:54:32.739Z,99.99
2022-10-22T08:57:18.035Z,99.99
2022-10-22T08:59:58.873Z,99.99
2022-10-22T09:02:58.443Z,99.99
2022-10-22T09:05:43.689Z,99.99
2022-10-22T09:08:18.563Z,99.99
2022-10-22T09:11:03.845Z,99.99
2022-10-22T09:13:34.360Z,99.99
2022-10-22T09:16:18.633Z,99.99
2022-10-22T09:19:16.406Z,99.99
2022-10-22T09:22:03.788Z,99.99
2022-10-22T09:24:40.086Z,99.99
2022-10-22T09:27:18.139Z,99.99
2022-10-22T09:29:49.829Z,99.99
2022-10-22T09:32:20.623Z,99.99
2022-10-22T09:34:51.625Z,99.99
2022-10-22T09:37:29.089Z,99.99
2022-10-22T09:40:05.249Z,99.99
2022-10-22T09:42:36.092Z,99.99
2022-10-22T09:45:06.725Z,99.99
2022-10-22T09:48:01.195Z,99.99
2022-10-22T09:50:51.310Z,99.99
2022-10-22T09:54:00.172Z,99.99
2022-10-22T09:56:42.923Z,99.99
2022-10-22T09:59:20.941Z,99.99
2022-10-22T10:02:13.756Z,99.99
2022-10-22T10:04:56.081Z,99.99
2022-10-22T10:07:33.216Z,99.99
2022-10-22T10:10:04.858Z,99.99
2022-10-22T10:12:56.001Z,99.99
2022-10-22T10:16:21.191Z,99.99
2022-10-22T10:19:23.915Z,99.99
2022-10-22T10:21:54.349Z,99.85
2022-10-22T10:24:28.531Z,97.27
2022-10-22T10:27:11.870Z,95.54
2022-10-22T10:29:57.603Z,95.32
2022-10-22T10:32:53.708Z,96.49
2022-10-22T10:35:27.264Z,94.22
2022-10-22T10:38:24.626Z,93.33
2022-10-22T10:41:33.617Z,95.99
2022-10-22T10:44:24.758Z,96.60
2022-10-22T10:47:20.148Z,99.27
2022-10-22T10:49:55.240Z,99.88
2022-10-22T10:52:33.331Z,99.91
2022-10-22T10:55:15.624Z,97.27
2022-10-22T10:58:30.393Z,97.83
2022-10-22T11:01:22.604Z,97.72
2022-10-22T11:04:01.187Z,97.43
2022-10-22T11:06:33.097Z,99.01
2022-10-22T11:09:27.650Z,97.87
2022-10-22T11:12:04.604Z,97.00
2022-10-22T11:14:43.613Z,96.51
2022-10-22T11:17:19.484Z,96.64
2022-10-22T11:20:00.559Z,95.13
2022-10-22T11:23:17.734Z,94.96
2022-10-22T11:25:49.798Z,93.71
2022-10-22T11:28:44.817Z,93.35
2022-10-22T11:31:19.278Z,94.18
2022-10-22T11:34:21.474Z,93.79
2022-10-22T11:36:56.054Z,93.35
2022-10-22T11:40:00.840Z,93.18
2022-10-22T11:42:46.440Z,92.39
2022-10-22T11:45:16.491Z,92.45
2022-10-22T11:48:00.169Z,91.67
2022-10-22T11:51:11.761Z,91.15
2022-10-22T11:53:42.060Z,90.28
2022-10-22T11:56:11.899Z,89.01
2022-10-22T11:58:45.069Z,90.38
2022-10-22T12:01:16.894Z,91.02
2022-10-22T12:04:07.281Z,91.94
2022-10-22T12:06:55.683Z,92.42
2022-10-22T12:09:31.248Z,91.23
2022-10-22T12:12:16.566Z,88.95
2022-10-22T12:15:00.523Z,89.53
2022-10-22T12:17:31.116Z,89.13
2022-10-22T12:20:15.014Z,87.42
2022-10-22T12:22:46.544Z,85.89
2022-10-22T12:25:35.483Z,87.73
2022-10-22T12:28:06.635Z,90.46
2022-10-22T12:30:36.674Z,90.40
2022-10-22T12:33:09.707Z,90.30
2022-10-22T12:35:48.799Z,90.58
2022-10-22T12:38:21.948Z,90.38
2022-10-22T12:40:55.701Z,90.05
2022-10-22T12:43:31.642Z,90.03
2022-10-22T12:46:02.352Z,88.87
2022-10-22T12:48:39.912Z,87.57
2022-10-22T12:51:11.608Z,86.97
2022-10-22T12:53:47.507Z,88.52
2022-10-22T12:56:35.641Z,89.89
2022-10-22T12:59:21.364Z,88.72
2022-10-22T13:01:52.943Z,87.79
2022-10-22T13:04:30.017Z,87.71
2022-10-22T13:07:18.383Z,88.64
2022-10-22T13:10:00.201Z,88.19
2022-10-22T13:12:38.539Z,87.85
2022-10-22T13:15:30.295Z,84.90
2022-10-22T13:18:18.598Z,81.66
2022-10-22T13:21:02.838Z,83.14
2022-10-22T13:23:35.179Z,85.54
2022-10-22T13:26:05.167Z,90.10
2022-10-22T13:28:35.359Z,88.42
2022-10-22T13:31:19.537Z,87.57
2022-10-22T13:33:55.301Z,86.52
2022-10-22T13:36:26.534Z,86.41
2022-10-22T13:38:57.288Z,85.21
2022-10-22T13:41:30.100Z,81.76
2022-10-22T13:44:00.725Z,78.69
2022-10-22T13:46:30.818Z,80.48
2022-10-22T13:49:01.582Z,79.39
2022-10-22T13:51:36.119Z,76.98
2022-10-22T13:54:10.900Z,76.47
2022-10-22T13:56:41.114Z,79.31
2022-10-22T13:59:12.005Z,77.67
2022-10-22T14:01:43.373Z,73.34
2022-10-22T14:04:16.616Z,74.11
2022-10-22T14:06:46.904Z,73.80
2022-10-22T14:09:18.234Z,72.76
2022-10-22T14:11:50.457Z,71.92
2022-10-22T14:14:20.752Z,73.70
2022-10-22T14:16:50.607Z,72.82
2022-10-22T14:19:20.684Z,71.82
2022-10-22T14:21:50.543Z,74.48
2022-10-22T14:24:21.380Z,78.53
2022-10-22T14:26:51.532Z,79.57
2022-10-22T14:29:21.336Z,77.13
2022-10-22T14:31:51.117Z,75.23
2022-10-22T14:34:20.903Z,69.74
2022-10-22T14:36:50.705Z,67.20
2022-10-22T14:39:22.676Z,67.54
2022-10-22T14:41:52.951Z,69.71
2022-10-22T14:44:23.151Z,71.07
2022-10-22T14:46:55.504Z,64.52
2022-10-22T14:49:25.975Z,63.64
2022-10-22T14:51:56.197Z,63.15
2022-10-22T14:54:25.963Z,64.27
2022-10-22T14:56:55.820Z,63.62
2022-10-22T14:59:26.026Z,63.13
2022-10-22T15:01:55.961Z,62.36
2022-10-22T15:04:28.173Z,65.26
2022-10-22T15:06:58.248Z,64.51
2022-10-22T15:09:28.095Z,64.71
2022-10-22T15:11:57.945Z,63.50
2022-10-22T15:14:28.406Z,64.22
2022-10-22T15:16:58.731Z,66.88
2022-10-22T15:19:28.619Z,65.40
2022-10-22T15:21:58.446Z,64.17
2022-10-22T15:24:28.277Z,64.23
2022-10-22T15:26:58.071Z,62.57
2022-10-22T15:29:28.205Z,69.44
2022-10-22T15:31:59.559Z,73.08
2022-10-22T15:34:36.482Z,69.51
2022-10-22T15:37:10.397Z,69.41
2022-10-22T15:39:44.418Z,67.70
2022-10-22T15:42:15.732Z,72.07
2022-10-22T15:44:46.053Z,69.12
2022-10-22T15:47:15.989Z,67.81
2022-10-22T15:49:45.857Z,67.12
2022-10-22T15:52:17.017Z,67.03
2022-10-22T15:54:48.337Z,66.81
2022-10-22T15:57:18.461Z,65.27
2022-10-22T15:59:48.384Z,65.32
2022-10-22T16:02:18.291Z,65.21
2022-10-22T16:04:49.080Z,65.94
2022-10-22T16:07:21.163Z,64.42
2022-10-22T16:10:01.358Z,69.51
2022-10-22T16:12:31.470Z,72.49
2022-10-22T16:15:01.365Z,69.88
2022-10-22T16:17:31.257Z,69.35
2022-10-22T16:20:01.974Z,66.64
2022-10-22T16:22:31.987Z,66.53
2022-10-22T16:25:01.838Z,69.34
2022-10-22T16:27:31.786Z,70.09
2022-10-22T16:30:01.905Z,67.68
2022-10-22T16:32:31.738Z,67.42
2022-10-22T16:35:02.064Z,65.81
2022-10-22T16:37:32.508Z,63.54
2022-10-22T16:40:04.542Z,65.47
2022-10-22T16:42:38.073Z,68.82
2022-10-22T16:45:08.694Z,72.97
2022-10-22T16:47:38.852Z,73.13
2022-10-22T16:50:09.265Z,74.24
2022-10-22T16:52:39.505Z,76.14
2022-10-22T16:55:10.131Z,75.31
2022-10-22T16:57:40.821Z,76.49
2022-10-22T17:00:11.837Z,77.70
2022-10-22T17:02:41.805Z,76.83
2022-10-22T17:05:12.248Z,71.65
2022-10-22T17:07:42.374Z,71.57
2022-10-22T17:10:13.166Z,75.31
2022-10-22T17:12:43.673Z,72.03
2022-10-22T17:15:13.944Z,69.97
2022-10-22T17:17:44.589Z,73.32
2022-10-22T17:20:14.411Z,75.61
2022-10-22T17:22:44.262Z,71.24
2022-10-22T17:25:16.700Z,69.00
2022-10-22T17:27:48.192Z,68.68
2022-10-22T17:30:23.441Z,72.97
2022-10-22T17:32:56.985Z,73.41
2022-10-22T17:38:02.484Z,69.99
2022-10-22T17:40:32.645Z,67.08
2022-10-22T17:43:02.683Z,67.85
2022-10-22T17:45:32.468Z,66.47
2022-10-22T17:48:02.732Z,65.90
2022-10-22T17:50:33.061Z,66.43
2022-10-22T17:53:03.213Z,66.96
2022-10-22T17:55:35.801Z,66.45
2022-10-22T17:58:05.936Z,66.20
2022-10-22T18:00:38.135Z,64.63
2022-10-22T18:03:08.834Z,64.72
2022-10-22T18:05:39.561Z,65.44
2022-10-22T18:08:09.435Z,65.28
2022-10-22T18:10:41.969Z,66.72
2022-10-22T18:13:12.542Z,65.93
2022-10-22T18:15:43.214Z,65.65
2022-10-22T18:18:13.356Z,66.09
2022-10-22T18:20:43.403Z,69.74
2022-10-22T18:23:14.714Z,68.80
2022-10-22T18:25:44.892Z,66.63
2022-10-22T18:28:15.527Z,68.20
2022-10-22T18:30:46.216Z,66.84
2022-10-22T18:33:20.562Z,65.44
2022-10-22T18:35:50.689Z,67.83
2022-10-22T18:38:23.057Z,68.44
2022-10-22T18:40:53.328Z,69.72
2022-10-22T18:43:23.547Z,69.19
2022-10-22T18:45:53.463Z,69.92
2022-10-22T18:48:24.137Z,70.30
2022-10-22T18:51:03.184Z,70.29
2022-10-22T18:53:33.854Z,70.57
2022-10-22T18:56:07.235Z,69.60
2022-10-22T18:58:46.246Z,70.21
2022-10-22T19:01:23.385Z,70.69
2022-10-22T19:03:53.684Z,71.45
2022-10-22T19:06:33.306Z,71.16
2022-10-22T19:09:07.389Z,72.19
2022-10-22T19:11:38.122Z,72.14
2022-10-22T19:14:08.112Z,72.92
2022-10-22T19:16:39.911Z,72.92
2022-10-22T19:19:10.794Z,74.12
2022-10-22T19:21:40.628Z,73.46
2022-10-22T19:24:11.940Z,74.17
2022-10-22T19:26:43.235Z,74.57
2022-10-22T19:29:13.370Z,75.12
2022-10-22T19:31:44.106Z,74.15
2022-10-22T19:34:15.118Z,74.08
2022-10-22T19:36:45.248Z,75.04
2022-10-22T19:39:18.883Z,76.49
2022-10-22T19:41:49.638Z,77.77
2022-10-22T19:44:20.924Z,77.51
2022-10-22T19:46:51.618Z,76.39
2022-10-22T19:49:23.015Z,76.81
2022-10-22T19:51:53.406Z,76.57
2022-10-22T19:54:23.189Z,76.68
2022-10-22T19:56:53.175Z,76.66
2022-10-22T19:59:27.362Z,76.41
2022-10-22T20:02:00.500Z,76.64
2022-10-22T20:04:31.306Z,76.10
2022-10-22T20:07:01.219Z,76.75
2022-10-22T20:09:31.336Z,76.65
2022-10-22T20:12:01.543Z,76.73
2022-10-22T20:14:31.806Z,77.13
2022-10-22T20:17:01.695Z,77.00
2022-10-22T20:19:31.471Z,77.02
2022-10-22T20:22:01.404Z,77.70
2022-10-22T20:24:31.616Z,77.38
2022-10-22T20:27:01.419Z,78.94
2022-10-22T20:29:31.616Z,79.07
2022-10-22T20:32:02.396Z,78.25
2022-10-22T20:34:35.168Z,78.78
2022-10-22T20:37:05.629Z,79.59
2022-10-22T20:39:36.757Z,79.71
2022-10-22T20:42:06.595Z,79.43
2022-10-22T20:44:36.424Z,80.07
2022-10-22T20:47:06.621Z,79.20
2022-10-22T20:49:37.082Z,79.65
2022-10-22T20:52:07.907Z,80.60
2022-10-22T20:54:42.529Z,80.44
2022-10-22T20:57:14.803Z,83.18
2022-10-22T20:59:44.936Z,83.60
2022-10-22T21:02:14.766Z,84.26
2022-10-22T21:04:45.718Z,82.95
2022-10-22T21:07:17.526Z,82.33
2022-10-22T21:33:22.287Z,90.36
2022-10-22T21:35:54.774Z,90.83
2022-10-22T21:38:26.517Z,91.35
2022-10-22T21:40:57.159Z,92.00
2022-10-22T21:43:27.445Z,92.55
2022-10-22T21:46:25.015Z,93.46
2022-10-22T21:49:00.502Z,93.90
2022-10-22T21:51:33.140Z,94.07
2022-10-22T21:54:03.606Z,94.58
2022-10-22T21:56:35.983Z,95.28
2022-10-22T21:59:07.263Z,95.80
2022-10-22T22:01:37.932Z,96.49
2022-10-22T22:04:08.291Z,97.33
2022-10-22T22:06:38.134Z,97.90
2022-10-22T22:09:08.061Z,98.24
2022-10-22T22:11:38.012Z,98.69
2022-10-22T22:14:08.279Z,99.17
2022-10-22T22:16:38.476Z,99.74
2022-10-22T22:19:11.088Z,99.99
2022-10-22T22:21:42.607Z,99.99
2022-10-22T22:24:14.896Z,99.99
2022-10-22T22:26:45.196Z,99.99
2022-10-22T22:29:15.175Z,99.99
2022-10-22T22:31:47.116Z,99.99
2022-10-22T22:34:18.234Z,99.99
2022-10-22T22:36:52.592Z,99.99
2022-10-22T22:39:25.489Z,99.99
2022-10-22T22:41:55.582Z,99.99
2022-10-22T22:44:25.897Z,99.99
2022-10-22T22:46:56.144Z,99.99
2022-10-22T22:49:25.972Z,99.99
2022-10-22T22:51:55.793Z,99.99
2022-10-22T22:54:25.588Z,99.99
2022-10-22T22:56:55.446Z,99.99
2022-10-22T22:59:25.217Z,99.99
2022-10-22T23:01:55.599Z,99.99
2022-10-22T23:04:27.546Z,99.99
2022-10-22T23:06:58.352Z,99.99
2022-10-22T23:09:28.305Z,99.99
2022-10-22T23:11:58.088Z,99.99
2022-10-22T23:14:28.005Z,99.99
2022-10-22T23:16:58.220Z,99.99
2022-10-22T23:19:28.261Z,99.99
2022-10-22T23:22:17.807Z,99.99
2022-10-22T23:24:48.204Z,99.99
2022-10-22T23:27:18.471Z,99.99
2022-10-22T23:29:48.577Z,99.99
2022-10-22T23:32:18.361Z,99.99
2022-10-22T23:34:48.303Z,99.99
2022-10-22T23:37:18.218Z,99.99
2022-10-22T23:39:48.061Z,99.99
2022-10-22T23:42:18.180Z,99.99
2022-10-22T23:44:48.000Z,99.99
2022-10-22T23:47:17.800Z,99.99
2022-10-22T23:49:47.746Z,99.99
2022-10-22T23:52:17.526Z,99.99
2022-10-22T23:54:47.709Z,99.99
2022-10-22T23:57:17.537Z,99.99
2022-10-22T23:59:47.355Z,99.99
